Terminal Aerodrome Forecast
Issued by NWS

Current Version | Previous Version | Text Only | Print | Product List | Glossary On
Versions: 1 2 3 4 5 6 7 8 9 10 11 12 13 14 15 16 17 18 19
000
FTUS42 KMLB 302326
TAFLEE
TAF
KLEE 302326Z 0100/0124 28008KT P6SM SCT070 BKN250
     FM010200 24004KT P6SM FEW040 SCT250
     FM011400 27006KT P6SM FEW030 BKN250=

USA.gov is the U.S. government's official web portal to all federal, state and local government web resources and services.